עמוד ראשי
METAR-TAF:

METAR-TAF

שדות תעופה :

Haugesund, נורבגיה

קו רוחב: 59-21N, קו אורך: 005-13E, גובה: 2מטר

תצפית מזג אוויר נוכחית

הדו"ח נערך לפני 39דקות, בשעה 15:50 UTC
רוח 16קשר מכיוון צפון/צפון-מערב
טמפרטורת 6 צלסיוס
לחות 61%
לחץ 1007 hPa
ראות 10 קילומטר או יותר
מעט עננים בגובה 3000רגל

METAR: ENHD 241550Z 34016KT 9999 FEW030 06/M01 Q1007

זמן: 18:29 (16:29 UTC)

תחזית

הדו"ח נערך לפני 5 שעות ו 29דקות, בשעה 11:00 UTC
תחזית בתוקף מ 24 ב 12 UTC עד 24 ב 20 UTC
רוח 15קשר מכיוון צפון/צפון-מערב
ראות 10 קילומטר או יותר
מעט עננים בגובה 3000רגל
עננים פזורים בגובה 4500רגל
זמנית מ -
24 ב 12 UTC עד 24 ב 17 UTC
רוח 18קשר מכיוון צפון/צפון-מערב עם משבים עד 28קשר
יעשה מ
24 ב 18 UTC עד 24 ב 20 UTC
רוח 5קשר מכיוון צפון

TAF: ENHD 241100Z 2412/2420 34015KT 9999 FEW030 SCT045 TEMPO 2412/2417 34018G28KT BECMG 2418/2420 36005KT

תצפיות ותחזיות מזג אוויר לגבי יותר מ- 4,000 שדות תעופה ברחבי העולם. דוחות METAR ו- TAF.

התחנות הזמינות מסומנות בנקודות צהובות ואדומות על גבי המפה.

העבר את העכבר לנקודה הצבעונית על מנת לראות את שם התחנה.

לאחר מכן, לחץ כדי לראות את תוכן ואת תחזיות מזג האוויר.

כדי לשנות את המפה: לחץ על הכפתורים הירוקים עם הפלוס השחור כדי להתקרב; על הכפתור הירוק עם המקף כדי להתרחק; או בחיצים הירוקים למפות סמוכות.


METAR-TAF: